Formula One Group (FWONK) Institutional Ownership

$69.68
+0.81 (+1.18%)
(As of 04/23/2024 ET)

Institutional Ownership Changes (13F Filings) for Formula One Group (NASDAQ:FWONK)

Current
Institutional Ownership
Percentage
92.26%
Number of
Institutional Buyers
(last 12 months)
9
Total
Institutional Inflows
(last 12 months)
$7.87M
Number of
Institutional Sellers
(last 12 months)
16
Total
Institutional Outflows
(last 12 months)
$46.09M
Get FWONK Insider Trade Alerts

Want to know when executives and insiders are buying or selling Formula One Group stock? Sign up for InsiderTrades.com's daily newsletter to get the latest insider transactions delivered to your inbox daily.

Skip Chart & View Institutional Buying and Selling Data

FWONK Institutional Buying and Selling by Quarter

Formula One Group Major Shareholders & Ownership History

Reporting DateMajor Shareholder NameShares HeldMarket Value% of PortfolioQuarterly Change in SharesOwnership in CompanyDetails
2/13/2024Public Employees Retirement Association of Colorado22,559$1.42M0.0%-3.7%0.010%
2/13/2024Fairview Capital Investment Management LLC884,253$55.82M3.3%-1.2%0.377%
2/8/2024Janney Montgomery Scott LLC18,486$1.17M0.0%N/A0.008%
2/5/2024Russell Investments Group Ltd.71,618$4.52M0.0%+156.3%0.031%
1/23/2024Hahn Capital Management LLC81,511$5.15M2.1%-6.3%0.035%
1/5/2024 Norman Fields Gottscho Capital Management LLC107,922$6.81M2.7%+7.0%0.046%
11/16/2023Greenwood Gearhart Inc.174,111$10.85M1.3%+6.1%0.074%
11/9/2023Davis Selected Advisers265,230$16.52M0.1%-1.0%0.113%
10/31/2023Hahn Capital Management LLC87,030$5.42M2.2%-14.6%0.037%
10/11/2023 Norman Fields Gottscho Capital Management LLC100,885$6.29M2.7%-0.3%0.043%
8/14/2023Greenwood Gearhart Inc.164,119$12.36M1.4%+4.8%0.070%
8/14/2023Horizon Kinetics Asset Management LLC205,514$15.47M0.3%-0.5%0.088%
8/11/2023Geode Capital Management LLC2,968,878$223.15M0.0%-2.5%1.426%
8/11/2023Covestor Ltd691$52K0.0%+299.4%0.000%
8/10/2023Bessemer Group Inc.8,070$607K0.0%+46.6%0.003%
8/10/2023Thompson Siegel & Walmsley LLC24,137$1.82M0.0%-4.4%0.010%
8/10/2023Russell Investments Group Ltd.40,658$3.06M0.0%-4.7%0.017%
8/4/2023American International Group Inc.1,728$130K0.0%-18.8%0.001%
8/3/2023Bank of New York Mellon Corp1,713,680$129.01M0.0%-7.1%0.731%
7/31/2023Hahn Capital Management LLC101,948$7.68M2.5%-2.3%0.043%
7/31/2023Tobam1,261$95K0.0%-74.3%0.001%
7/31/2023Sumitomo Mitsui Trust Holdings Inc.435,464$32.78M0.0%-16.5%0.186%
7/27/2023Carmel Capital Partners LLC18,282$1.38M0.7%+8.6%0.008%
7/26/2023Oregon Public Employees Retirement Fund20,482$1.54M0.0%N/A0.009%
7/26/2023Janney Montgomery Scott LLC17,121$1.29M0.0%+3.9%0.007%
7/7/2023 Norman Fields Gottscho Capital Management LLC101,225$7.62M3.2%-0.6%0.043%
5/16/2023Greenwood Gearhart Inc.156,586$11.72M1.5%+0.6%0.067%
5/11/2023Thompson Siegel & Walmsley LLC25,237$1.89M0.0%-39.2%0.011%
5/10/2023Bessemer Group Inc.5,505$412K0.0%+213.7%0.002%
5/9/2023Bank of New York Mellon Corp1,845,455$138.10M0.0%-11.9%0.789%
5/9/2023California State Teachers Retirement System290,195$21.72M0.0%-0.8%0.124%
5/9/2023US Bancorp DE5,125$384K0.0%-21.2%0.002%
5/9/2023Russell Investments Group Ltd.42,647$3.19M0.0%-6.9%0.018%
5/3/2023Tobam4,907$367K0.0%-18.7%0.002%
4/28/2023Janney Montgomery Scott LLC16,471$1.23M0.0%-23.9%0.007%
4/27/2023Sumitomo Mitsui Trust Holdings Inc.521,502$39.02M0.0%-0.3%0.223%
4/26/2023James Investment Research Inc.406$30K0.0%N/A0.000%
4/19/2023Carmel Capital Partners LLC16,833$1.26M0.7%+4.1%0.007%
4/17/2023Hahn Capital Management LLC104,310$7.81M2.5%-15.8%0.045%
2/14/2023Brevan Howard Capital Management LP41,500$2.48M0.1%N/A0.018%
One trade. One ticker. One week. (Ad)

Do you want to target weekly income of up to $2k or more… Starting with just $500... With just one trade per week?

Well, then you should click here to see this free training.
2/14/2023Driehaus Capital Management LLC145,870$8.72M0.1%-63.2%0.062%
2/13/2023Neuberger Berman Group LLC96,417$5.73M0.0%-15.3%0.041%
2/13/2023Geode Capital Management LLC2,970,140$177.37M0.0%+2.0%1.270%
2/10/2023Thompson Siegel & Walmsley LLC41,497$2.48M0.0%-9.2%0.018%
2/10/2023Fairview Capital Investment Management LLC1,089,279$65.12M4.5%+0.2%0.466%
2/8/2023Russell Investments Group Ltd.45,824$2.74M0.0%+21.3%0.020%
2/1/2023Janney Montgomery Scott LLC21,649$1.29M0.0%+8.9%0.009%
1/30/2023New York State Common Retirement Fund527,937$31.56M0.0%-3.9%0.226%
1/30/2023Sumitomo Mitsui Trust Holdings Inc.523,241$31.28M0.0%-1.5%0.224%
1/26/2023Oregon Public Employees Retirement Fund928$55K0.0%-95.1%0.000%
1/25/2023Hahn Capital Management LLC123,916$7.41M2.0%-2.1%0.053%
1/4/2023 Norman Fields Gottscho Capital Management LLC101,813$6.09M2.8%+3.5%0.044%
12/8/2022Bank of New York Mellon Corp2,160,299$126.38M0.0%+9.2%0.924%
12/6/2022Hahn Capital Management LLC126,552$7.40M2.1%-2.4%0.054%
11/16/2022Greenwood Gearhart Inc.152,347$8.91M1.4%-0.5%0.065%
11/15/2022UBS Asset Management Americas Inc.539,241$31.55M0.0%-2.1%0.231%
11/15/2022Fairview Capital Investment Management LLC1,086,712$63.57M4.5%-0.4%0.465%
11/15/2022Bank of New York Mellon Corp2,160,299$126.38M0.0%+9.2%0.924%
11/14/2022Gamco Investors INC. ET AL91,026$5.33M0.1%-2.3%0.039%
11/14/2022Gabelli Funds LLC135,350$7.92M0.1%-81.3%0.058%
11/14/2022Allstate Corp6,393$374K0.0%-3.9%0.003%
11/10/2022Gabelli Funds LLC135,350$7.92M0.1%-81.3%0.058%
11/10/2022Gamco Investors INC. ET AL91,026$5.33M0.1%-2.3%0.039%
11/8/2022New York State Common Retirement Fund549,501$32.15M0.0%-19.1%0.236%
11/2/2022Oregon Public Employees Retirement Fund19,128$1.12M0.0%+6.3%0.008%
11/2/2022Tobam6,028$353K0.0%-14.6%0.003%
10/31/2022James Investment Research Inc.886$52K0.0%+64.4%0.000%
10/27/2022US Bancorp DE2,527$147K0.0%+74.4%0.001%
10/25/2022Janney Montgomery Scott LLC19,876$1.16M0.0%-17.6%0.009%
10/21/2022Sumitomo Mitsui Trust Holdings Inc.531,108$31.07M0.0%-1.9%0.228%
10/11/2022 Norman Fields Gottscho Capital Management LLC98,388$5.76M2.8%+6.3%0.042%
8/17/2022Hahn Capital Management LLC129,641$8.23M2.2%-5.3%0.056%
8/16/2022Greenwood Gearhart Inc.153,099$9.72M1.5%-0.1%0.066%
8/16/2022Driehaus Capital Management LLC770,517$48.91M0.8%-10.1%0.333%
8/15/2022UBS Asset Management Americas Inc.550,676$34.95M0.0%+0.4%0.238%
8/13/2022S&CO Inc.122,078$7.75M0.7%-0.8%0.053%
8/13/2022Gamco Investors INC. ET AL93,130$5.91M0.1%-1.1%0.040%
8/3/2022Janney Montgomery Scott LLC24,129$1.53M0.0%+6.6%0.010%
8/2/2022Tobam7,061$448K0.0%+739.6%0.003%
8/1/2022James Investment Research Inc.539$34K0.0%+209.8%0.000%
8/1/2022US Bancorp DE1,449$92K0.0%+421.2%0.001%
7/26/2022Sumitomo Mitsui Trust Holdings Inc.541,284$34.36M0.0%+4.3%0.234%
7/25/2022Oregon Public Employees Retirement Fund18,000$1.14M0.0%N/A0.008%
7/22/2022Thompson Siegel & Walmsley LLC45,697$2.90M0.0%+4.6%0.020%
7/8/2022 Norman Fields Gottscho Capital Management LLC92,583$5.88M2.7%+40.5%0.040%
5/17/2022Fairview Capital Investment Management LLC1,199,058$83.74M5.2%-0.5%0.519%
5/11/2022Bank of New York Mellon Corp2,104,684$146.99M0.0%+10.3%0.911%
5/10/2022NewSquare Capital LLC60,672$4.24M0.4%N/A0.026%
5/5/2022New York State Common Retirement Fund713,889$49.86M0.1%+22.0%0.309%
5/5/2022Russell Investments Group Ltd.38,499$2.69M0.0%+17.6%0.017%
The Best AI Stock to Own in the World Today is Trading for Just $25 (Ad)

“Titan of Tech” Bets Big on Tiny AI Company He’s made as much as 3,250,000% in just three years on companies like Facebook, Airbnb, and PayPal… But our research shows his latest investment could be his most successful venture yet.

See how you can invest alongside him
4/27/2022Dupont Capital Management Corp10,640$743K0.0%N/A0.005%
4/27/2022Sumitomo Mitsui Trust Holdings Inc.519,043$36.25M0.0%-4.5%0.225%
4/26/2022Thompson Siegel & Walmsley LLC43,697$3.05M0.0%+4.4%0.019%
4/18/2022Hahn Capital Management LLC136,891$9.56M2.1%-3.4%0.059%
2/25/2022Hahn Capital Management LLC141,780$8.97M1.7%-4.4%0.061%
2/15/2022Greenwood Gearhart Inc.151,778$9.60M1.3%-0.2%0.066%
2/15/2022Connable Office Inc.39,315$2.49M0.3%-0.6%0.017%
2/11/2022Geode Capital Management LLC2,766,232$174.69M0.0%+5.8%1.197%
2/11/2022Gamco Investors INC. ET AL95,369$6.03M0.1%-7.3%0.041%
2/9/2022Thompson Siegel & Walmsley LLC41,837$2.65M0.0%-22.5%0.018%
(Data available from 1/1/2016 forward)

FWONK Institutional Ownership - Frequently Asked Questions

Who are the largest shareholders of FWONK shares?

During the previous two years, 33 institutional investors and hedge funds held shares of Formula One Group. The most heavily invested institutionals were Geode Capital Management LLC ($223.15M), Bank of New York Mellon Corp ($129.01M), Fairview Capital Investment Management LLC ($55.82M), Sumitomo Mitsui Trust Holdings Inc. ($32.78M), New York State Common Retirement Fund ($31.56M), UBS Asset Management Americas Inc. ($31.55M), and California State Teachers Retirement System ($21.72M).Learn more on FWONK's institutional investors.

What percentage of Formula One Group stock is owned by institutional investors?

92.26% of Formula One Group stock is owned by institutional investors. Learn more on FWONK's institutional investor holdings.

Which institutional investors have been buying Formula One Group stock?

Of the 21 institutional investors that purchased Formula One Group stock in the last 24 months, the following investors and hedge funds have bought the highest volume of shares: Bank of New York Mellon Corp ($562.02K), New York State Common Retirement Fund ($128.87K), NewSquare Capital LLC ($60.67K), Geode Capital Management LLC ($58.28K), Russell Investments Group Ltd. ($57.49K), Norman Fields Gottscho Capital Management LLC ($42.94K), and Brevan Howard Capital Management LP ($41.50K).

How much institutional buying is happening at Formula One Group?

Institutional investors have bought a total of 1,092,161 shares in the last 24 months. This purchase volume represents approximately $70.04M in transactions.

Which Formula One Group major shareholders have been selling company stock?

Of the 26 institutional investors that sold Formula One Group stock in the last 24 months, the following investors and hedge funds have sold the highest volume of shares: Gabelli Funds LLC ($1.18M), Bank of New York Mellon Corp ($382.22K), Driehaus Capital Management LLC ($337.23K), New York State Common Retirement Fund ($151.10K), Sumitomo Mitsui Trust Holdings Inc. ($130.00K), Geode Capital Management LLC ($74.63K), and Hahn Capital Management LLC ($55.38K).

How much institutional selling is happening at Formula One Group?

Institutional investors have sold a total of 2,437,478 shares in the last 24 months. This volume of shares sold represents approximately $153.99M in transactions.


This page (NASDAQ:FWONK) was last updated on 4/23/2024 by MarketBeat.com Staff

From Our Partners